Time;durP1;ratioP1;P1;durP2;ratioP2;P2;SDS_P1;SDS_P2;PMS_P1;PMS_P2;Temp;Humidity;BMP_temperature;BMP_pressure;BME280_temperature;BME280_humidity;BME280_pressure;Samples;Min_cycle;Max_cycle;Signal;HPM_P1;HPM_P2
2022/10/26 00:01:52;;;;;;;2.67;1.00;;;9.40;99.90;;;;;;4994444;28;20206;-88
2022/10/26 00:04:24;;;;;;;1.50;1.07;;;9.40;99.90;;;;;;4995214;28;20213;-87
2022/10/26 00:06:57;;;;;;;1.33;0.70;;;9.40;99.90;;;;;;4995150;28;20221;-87
2022/10/26 00:09:28;;;;;;;2.57;0.90;;;9.40;99.90;;;;;;4995010;28;20214;-86
2022/10/26 00:11:59;;;;;;;1.40;0.90;;;9.30;99.90;;;;;;4993991;28;20213;-87
2022/10/26 00:14:32;;;;;;;1.47;0.90;;;9.30;99.90;;;;;;4995757;28;20203;-88
2022/10/26 00:17:02;;;;;;;1.70;0.60;;;9.30;99.90;;;;;;4995213;28;20206;-88
2022/10/26 00:19:37;;;;;;;3.27;0.70;;;9.20;99.90;;;;;;4992949;28;20253;-87
2022/10/26 00:22:10;;;;;;;1.30;0.73;;;9.10;99.90;;;;;;4993821;28;20201;-86
2022/10/26 00:24:41;;;;;;;1.30;0.90;;;9.10;99.90;;;;;;4994919;28;20217;-87
2022/10/26 00:27:12;;;;;;;1.10;0.90;;;9.10;99.90;;;;;;5010136;28;20627;-87
2022/10/26 00:29:43;;;;;;;1.70;1.03;;;9.00;99.90;;;;;;5012958;28;20210;-88
2022/10/26 00:32:14;;;;;;;2.10;0.80;;;9.00;99.90;;;;;;5002524;28;20197;-88
2022/10/26 00:34:44;;;;;;;1.20;0.80;;;9.00;99.90;;;;;;5014216;28;20576;-87
2022/10/26 00:37:17;;;;;;;1.07;0.60;;;8.90;99.90;;;;;;5014236;28;20650;-86
2022/10/26 00:39:49;;;;;;;1.80;0.77;;;8.90;99.90;;;;;;5002588;28;20230;-86
2022/10/26 00:42:23;;;;;;;1.00;0.73;;;8.90;99.90;;;;;;4993239;28;20217;-87
2022/10/26 00:45:02;;;;;;;1.03;0.80;;;8.90;99.90;;;;;;4993780;28;20211;-86
2022/10/26 00:47:42;;;;;;;1.20;0.90;;;8.80;99.90;;;;;;4996168;28;20210;-87
2022/10/26 00:50:19;;;;;;;2.10;0.83;;;8.80;99.90;;;;;;4981482;28;20230;-88
2022/10/26 00:52:54;;;;;;;0.50;0.50;;;8.80;99.90;;;;;;4976038;28;20288;-87
2022/10/26 00:55:33;;;;;;;1.13;0.70;;;8.80;99.90;;;;;;4958273;28;20202;-87
2022/10/26 00:58:06;;;;;;;1.00;0.70;;;8.80;99.90;;;;;;4974839;28;20218;-87
2022/10/26 01:00:37;;;;;;;1.33;0.77;;;8.70;99.90;;;;;;4985053;28;20253;-87
2022/10/26 01:03:09;;;;;;;0.93;0.73;;;8.70;99.90;;;;;;4991382;28;20217;-86
2022/10/26 01:05:44;;;;;;;2.67;0.60;;;8.60;99.90;;;;;;4995091;28;20234;-87
2022/10/26 01:08:17;;;;;;;0.60;0.50;;;8.70;99.90;;;;;;4999028;28;20207;-87
2022/10/26 01:10:49;;;;;;;0.70;0.40;;;8.70;99.90;;;;;;4994549;28;20588;-87
2022/10/26 01:13:21;;;;;;;0.57;0.50;;;8.70;99.90;;;;;;4993530;28;20217;-89
2022/10/26 01:16:02;;;;;;;1.30;0.40;;;8.70;99.90;;;;;;4995022;28;20222;-87
2022/10/26 01:18:42;;;;;;;1.60;0.93;;;8.70;99.90;;;;;;4993808;28;20209;-87
2022/10/26 01:21:46;;;;;;;0.93;0.50;;;8.70;99.90;;;;;;4994168;28;20248;-87
2022/10/26 01:24:53;;;;;;;0.83;0.50;;;8.70;99.90;;;;;;4993104;28;20212;-87
2022/10/26 01:27:30;;;;;;;1.57;0.70;;;8.60;99.90;;;;;;4993729;28;20548;-87
2022/10/26 01:30:31;;;;;;;1.13;0.40;;;8.60;99.90;;;;;;4993833;28;20218;-88
2022/10/26 01:33:22;;;;;;;0.43;0.40;;;8.60;99.90;;;;;;4993390;28;20216;-89
2022/10/26 01:36:01;;;;;;;0.87;0.50;;;8.50;99.90;;;;;;4995207;28;20233;-88
2022/10/26 01:38:40;;;;;;;0.47;0.37;;;8.50;99.90;;;;;;4994953;28;20214;-89
2022/10/26 01:41:18;;;;;;;1.07;0.40;;;8.50;99.90;;;;;;4996423;28;20262;-91
2022/10/26 01:43:55;;;;;;;2.17;0.60;;;8.50;99.90;;;;;;4996676;28;20316;-88
2022/10/26 01:46:31;;;;;;;1.83;0.57;;;8.40;99.90;;;;;;4997660;28;20534;-88
2022/10/26 01:49:07;;;;;;;2.30;0.70;;;8.40;99.90;;;;;;4997631;28;20209;-90
2022/10/26 01:51:41;;;;;;;0.97;0.60;;;8.40;99.90;;;;;;5003391;28;20220;-90
2022/10/26 01:54:12;;;;;;;1.10;0.53;;;8.30;99.90;;;;;;5016842;28;20221;-89
2022/10/26 01:56:46;;;;;;;0.60;0.50;;;8.30;99.90;;;;;;5009901;28;20205;-89
2022/10/26 01:59:39;;;;;;;2.00;0.77;;;8.30;99.90;;;;;;4997561;28;20206;-89
2022/10/26 02:02:45;;;;;;;1.17;0.80;;;8.30;99.90;;;;;;4996666;28;20213;-89
2022/10/26 02:05:40;;;;;;;1.43;0.60;;;8.30;99.90;;;;;;4993014;28;20199;-89
2022/10/26 02:08:28;;;;;;;2.20;0.93;;;8.20;99.90;;;;;;4996160;28;20198;-89
2022/10/26 02:11:11;;;;;;;2.47;1.77;;;8.20;99.90;;;;;;4996605;28;20221;-90
2022/10/26 02:13:47;;;;;;;1.67;0.87;;;8.20;99.90;;;;;;4997547;28;20205;-88
2022/10/26 02:16:24;;;;;;;0.80;0.40;;;8.20;99.90;;;;;;4997503;28;20214;-90
2022/10/26 02:19:06;;;;;;;1.27;0.73;;;8.10;99.90;;;;;;4994594;28;20685;-89
2022/10/26 02:21:43;;;;;;;2.20;1.07;;;8.00;99.90;;;;;;4998053;28;20238;-93
2022/10/26 02:24:17;;;;;;;2.30;1.43;;;7.90;99.90;;;;;;4995902;28;20260;-91
2022/10/26 02:26:51;;;;;;;1.17;0.97;;;8.00;99.90;;;;;;4999773;28;20268;-90
2022/10/26 02:29:24;;;;;;;1.70;1.30;;;8.00;99.90;;;;;;4998445;28;20320;-90
2022/10/26 02:31:57;;;;;;;1.30;1.20;;;8.00;99.90;;;;;;4994678;28;20214;-91
2022/10/26 02:34:33;;;;;;;2.07;1.40;;;8.00;99.90;;;;;;4979280;28;20663;-89
2022/10/26 02:37:07;;;;;;;2.80;1.50;;;7.90;99.90;;;;;;4984757;28;20220;-90
2022/10/26 02:39:40;;;;;;;2.50;2.23;;;7.90;99.90;;;;;;4991863;28;20198;-90
2022/10/26 02:42:12;;;;;;;1.33;0.90;;;7.90;99.90;;;;;;4996472;28;20341;-91
2022/10/26 02:44:47;;;;;;;1.30;1.00;;;7.80;99.90;;;;;;4996598;28;20227;-89
2022/10/26 02:47:20;;;;;;;3.20;1.30;;;7.80;99.90;;;;;;4987944;28;20218;-89
2022/10/26 02:49:54;;;;;;;2.10;1.10;;;7.80;99.90;;;;;;4995433;28;20216;-88
2022/10/26 02:52:32;;;;;;;3.43;1.07;;;7.80;99.90;;;;;;4991359;28;20206;-89
2022/10/26 02:55:10;;;;;;;3.13;1.40;;;7.80;99.90;;;;;;4997063;28;20217;-90
2022/10/26 02:57:43;;;;;;;2.43;1.40;;;7.80;99.90;;;;;;4998710;28;20266;-90
2022/10/26 03:00:16;;;;;;;2.87;1.77;;;7.70;99.90;;;;;;4996882;28;20622;-88
2022/10/26 03:02:53;;;;;;;3.37;1.40;;;7.80;99.90;;;;;;5003540;28;20211;-89
2022/10/26 03:05:31;;;;;;;3.83;1.50;;;7.80;99.90;;;;;;5011014;28;20220;-90
2022/10/26 03:08:04;;;;;;;3.93;1.40;;;7.80;99.90;;;;;;5007003;28;20186;-89
2022/10/26 03:10:36;;;;;;;1.73;1.50;;;7.80;99.90;;;;;;4997292;28;20231;-89
2022/10/26 03:13:08;;;;;;;1.87;1.50;;;7.80;99.90;;;;;;4998239;28;20210;-89
2022/10/26 03:15:39;;;;;;;5.20;1.60;;;7.80;99.90;;;;;;4996283;28;20292;-89
2022/10/26 03:18:11;;;;;;;2.07;1.80;;;7.80;99.90;;;;;;4992540;28;20210;-90
2022/10/26 03:20:46;;;;;;;2.60;1.67;;;7.80;99.90;;;;;;4996458;28;20594;-88
2022/10/26 03:23:17;;;;;;;2.00;1.43;;;7.80;99.90;;;;;;4991574;28;20637;-90
2022/10/26 03:25:48;;;;;;;2.30;1.70;;;7.80;99.90;;;;;;5011565;28;20293;-90
2022/10/26 03:28:19;;;;;;;2.13;1.77;;;7.80;99.90;;;;;;4998587;28;20201;-90
2022/10/26 03:30:51;;;;;;;2.27;1.57;;;7.70;99.90;;;;;;4995638;28;20589;-91
2022/10/26 03:33:23;;;;;;;3.03;2.00;;;7.60;99.90;;;;;;4993416;28;20224;-90
2022/10/26 03:36:00;;;;;;;1.87;1.40;;;7.60;99.90;;;;;;4980236;28;20263;-91
2022/10/26 03:38:32;;;;;;;2.40;1.70;;;7.60;99.90;;;;;;4995666;28;21897;-91
2022/10/26 03:41:03;;;;;;;2.30;1.60;;;7.50;99.90;;;;;;4997841;28;20767;-90
2022/10/26 03:43:34;;;;;;;2.03;1.73;;;7.50;99.90;;;;;;4988086;28;20206;-91
2022/10/26 03:46:05;;;;;;;1.90;1.60;;;7.50;99.90;;;;;;4991470;28;20389;-91
2022/10/26 03:48:36;;;;;;;1.60;1.20;;;7.50;99.90;;;;;;4987710;28;20206;-90
2022/10/26 03:51:10;;;;;;;1.37;1.27;;;7.50;99.90;;;;;;4993996;28;20206;-89
2022/10/26 03:53:41;;;;;;;1.80;1.40;;;7.50;99.90;;;;;;4992501;28;20234;-89
2022/10/26 03:56:13;;;;;;;1.43;1.33;;;7.40;99.90;;;;;;4992672;28;20198;-90
2022/10/26 03:58:44;;;;;;;1.93;1.50;;;7.40;99.90;;;;;;4991425;28;20248;-90
2022/10/26 04:01:16;;;;;;;1.50;1.40;;;7.40;99.90;;;;;;4994631;28;20707;-89
2022/10/26 04:03:47;;;;;;;1.73;1.23;;;7.40;99.90;;;;;;4989920;28;20209;-88
2022/10/26 04:06:20;;;;;;;1.90;1.30;;;7.50;99.90;;;;;;4994553;28;20276;-89
2022/10/26 04:08:52;;;;;;;1.37;1.27;;;7.50;99.90;;;;;;4995454;28;20210;-88
2022/10/26 04:11:23;;;;;;;1.93;1.10;;;7.50;99.90;;;;;;4995514;28;20214;-89
2022/10/26 04:13:58;;;;;;;2.10;1.40;;;7.50;99.90;;;;;;4990175;28;20256;-89
2022/10/26 04:16:29;;;;;;;1.97;1.13;;;7.50;99.90;;;;;;4997967;28;20210;-90
2022/10/26 04:19:03;;;;;;;1.30;1.20;;;7.50;99.90;;;;;;4993714;28;20577;-90
2022/10/26 04:21:37;;;;;;;1.77;1.10;;;7.40;99.90;;;;;;4979024;28;20245;-89
2022/10/26 04:24:10;;;;;;;2.57;1.17;;;7.50;99.90;;;;;;4990024;28;20208;-90
2022/10/26 04:26:44;;;;;;;2.50;1.40;;;7.40;99.90;;;;;;4994322;28;20213;-89
2022/10/26 04:29:15;;;;;;;2.63;1.30;;;7.40;99.90;;;;;;4992776;28;20709;-89
2022/10/26 04:31:46;;;;;;;2.37;1.40;;;7.50;99.90;;;;;;4994593;28;20213;-89
2022/10/26 04:34:17;;;;;;;1.20;1.10;;;7.50;99.90;;;;;;4993823;28;20221;-90
2022/10/26 04:36:50;;;;;;;2.37;1.30;;;7.50;99.90;;;;;;4995075;28;20204;-89
2022/10/26 04:39:22;;;;;;;1.37;1.27;;;7.50;99.90;;;;;;4990345;28;20211;-89
2022/10/26 04:41:54;;;;;;;1.77;1.10;;;7.50;99.90;;;;;;4992929;28;20245;-91
2022/10/26 04:44:26;;;;;;;2.40;1.13;;;7.50;99.90;;;;;;4994184;28;20210;-89
2022/10/26 04:46:57;;;;;;;1.30;0.97;;;7.50;99.90;;;;;;4989385;28;20287;-90
2022/10/26 04:49:29;;;;;;;2.13;1.20;;;7.50;99.90;;;;;;4990134;28;20659;-89
2022/10/26 04:52:02;;;;;;;1.97;1.67;;;7.50;99.90;;;;;;4988023;28;20217;-89
2022/10/26 04:54:33;;;;;;;1.40;1.03;;;7.50;99.90;;;;;;4994795;28;20219;-89
2022/10/26 04:57:05;;;;;;;1.97;1.10;;;7.50;99.90;;;;;;4993461;28;20221;-89
2022/10/26 04:59:36;;;;;;;1.47;1.10;;;7.50;99.90;;;;;;4981626;28;20579;-89
2022/10/26 05:02:07;;;;;;;1.33;1.20;;;7.50;99.90;;;;;;4995594;28;20238;-90
2022/10/26 05:04:39;;;;;;;3.07;1.30;;;7.40;99.90;;;;;;4996262;28;20198;-89
2022/10/26 05:07:12;;;;;;;1.20;0.90;;;7.50;99.90;;;;;;4993977;28;20210;-89
2022/10/26 05:09:43;;;;;;;1.33;1.10;;;7.40;99.90;;;;;;4996447;28;20214;-89
2022/10/26 05:12:14;;;;;;;2.07;0.90;;;7.40;99.90;;;;;;5002659;28;20215;-88
2022/10/26 05:14:46;;;;;;;1.73;1.00;;;7.40;99.90;;;;;;4984013;28;20574;-89
2022/10/26 05:17:17;;;;;;;1.97;1.00;;;7.50;99.90;;;;;;4990500;28;20215;-90
2022/10/26 05:19:54;;;;;;;1.37;1.10;;;7.40;99.90;;;;;;4989154;28;20202;-89
2022/10/26 05:22:27;;;;;;;2.40;1.10;;;7.40;99.90;;;;;;4986325;28;20245;-89
2022/10/26 05:24:58;;;;;;;1.13;1.00;;;7.40;99.90;;;;;;4989886;28;20215;-89
2022/10/26 05:27:30;;;;;;;2.37;1.10;;;7.40;99.90;;;;;;4988836;28;20217;-90
2022/10/26 05:30:01;;;;;;;1.63;1.10;;;7.40;99.90;;;;;;4994122;28;20276;-89
2022/10/26 05:32:32;;;;;;;2.00;1.10;;;7.40;99.90;;;;;;4974781;28;20211;-90
2022/10/26 05:35:04;;;;;;;1.20;1.10;;;7.40;99.90;;;;;;4983227;28;20685;-89
2022/10/26 05:37:38;;;;;;;1.97;1.20;;;7.30;99.90;;;;;;4992831;28;20588;-89
2022/10/26 05:40:10;;;;;;;2.07;1.37;;;7.40;99.90;;;;;;4992697;28;20610;-89
2022/10/26 05:42:41;;;;;;;1.20;1.10;;;7.30;99.90;;;;;;4993080;28;20337;-89
2022/10/26 05:45:12;;;;;;;1.67;1.40;;;7.30;99.90;;;;;;4984496;28;20534;-89
2022/10/26 05:47:44;;;;;;;2.80;1.30;;;7.30;99.90;;;;;;4986761;28;20214;-88
2022/10/26 05:50:15;;;;;;;1.60;1.30;;;7.30;99.90;;;;;;4994205;28;20268;-88
2022/10/26 05:52:49;;;;;;;3.00;1.47;;;7.30;99.90;;;;;;4988495;28;20642;-89
2022/10/26 05:55:21;;;;;;;1.80;1.60;;;7.30;99.90;;;;;;4991483;28;20226;-89
2022/10/26 05:57:53;;;;;;;1.30;1.10;;;7.30;99.90;;;;;;4981913;28;20222;-89
2022/10/26 06:00:25;;;;;;;3.17;1.37;;;7.30;99.90;;;;;;4990060;28;20682;-88
2022/10/26 06:03:09;;;;;;;1.10;0.97;;;7.30;99.90;;;;;;4979835;28;20741;-88
2022/10/26 06:05:52;;;;;;;3.60;1.30;;;7.30;99.90;;;;;;4995688;28;20217;-90
2022/10/26 06:08:29;;;;;;;1.93;1.50;;;7.20;99.90;;;;;;4995168;28;20214;-89
2022/10/26 06:11:01;;;;;;;2.27;1.43;;;7.20;99.90;;;;;;4987998;28;20261;-88
2022/10/26 06:13:34;;;;;;;2.00;1.50;;;7.20;99.90;;;;;;4993645;28;20210;-89
2022/10/26 06:16:28;;;;;;;2.50;2.07;;;7.20;99.90;;;;;;4994172;28;20207;-88
2022/10/26 06:19:13;;;;;;;3.33;2.30;;;7.20;99.90;;;;;;4996214;28;20215;-89
2022/10/26 06:21:58;;;;;;;5.60;1.50;;;7.20;99.90;;;;;;4981821;28;20206;-88
2022/10/26 06:24:38;;;;;;;3.37;1.87;;;7.20;99.90;;;;;;4996519;28;20210;-87
2022/10/26 06:27:23;;;;;;;2.27;1.83;;;7.20;99.90;;;;;;4998878;28;20218;-89
2022/10/26 06:30:02;;;;;;;3.07;1.90;;;7.20;99.90;;;;;;4987229;28;20207;-88
2022/10/26 06:32:34;;;;;;;3.30;2.00;;;7.10;99.90;;;;;;4992457;28;20297;-88
2022/10/26 06:35:20;;;;;;;3.10;1.93;;;7.10;99.90;;;;;;4994046;28;20228;-90
2022/10/26 06:37:54;;;;;;;3.63;2.50;;;7.10;99.90;;;;;;4996242;28;20240;-89
2022/10/26 06:40:27;;;;;;;2.93;2.40;;;7.10;99.90;;;;;;4996389;28;20234;-89
2022/10/26 06:43:12;;;;;;;2.83;1.93;;;7.10;99.90;;;;;;4981283;28;20727;-89
2022/10/26 06:45:49;;;;;;;2.83;1.90;;;7.10;99.90;;;;;;4982738;28;20289;-90
2022/10/26 06:48:29;;;;;;;2.93;1.87;;;7.10;99.90;;;;;;4995840;28;20209;-90
2022/10/26 06:51:02;;;;;;;3.40;2.90;;;7.00;99.90;;;;;;4996982;28;20218;-89
2022/10/26 06:53:40;;;;;;;6.10;2.43;;;7.00;99.90;;;;;;4995170;28;20617;-89
2022/10/26 06:56:16;;;;;;;4.23;2.80;;;7.00;99.90;;;;;;4989678;28;20206;-90
2022/10/26 06:58:50;;;;;;;3.53;2.50;;;7.00;99.90;;;;;;4993623;28;20209;-89
2022/10/26 07:01:22;;;;;;;3.23;2.77;;;7.00;99.90;;;;;;4995115;28;20229;-89
2022/10/26 07:03:54;;;;;;;3.00;2.43;;;7.00;99.90;;;;;;4983395;28;20272;-90
2022/10/26 07:06:27;;;;;;;3.97;2.60;;;7.00;99.90;;;;;;4995423;28;20214;-90
2022/10/26 07:08:59;;;;;;;3.47;2.47;;;7.00;99.90;;;;;;4994106;28;20690;-89
2022/10/26 07:11:32;;;;;;;3.03;2.60;;;7.00;99.90;;;;;;4988636;28;20564;-88
2022/10/26 07:14:06;;;;;;;3.80;2.37;;;7.00;99.90;;;;;;4990135;28;20217;-90
2022/10/26 07:16:37;;;;;;;2.63;2.43;;;7.00;99.90;;;;;;4991105;28;20213;-88
2022/10/26 07:19:09;;;;;;;2.83;2.40;;;7.00;99.90;;;;;;4986353;28;20214;-89
2022/10/26 07:21:40;;;;;;;2.87;2.40;;;7.00;99.90;;;;;;4990279;28;20376;-89
2022/10/26 07:24:12;;;;;;;3.43;2.30;;;7.10;99.90;;;;;;4992980;28;20283;-88
2022/10/26 07:26:46;;;;;;;3.27;2.57;;;7.10;99.90;;;;;;4988793;28;20686;-88
2022/10/26 07:29:17;;;;;;;5.67;2.80;;;7.10;99.90;;;;;;4994821;28;20238;-88
2022/10/26 07:31:49;;;;;;;2.57;2.33;;;7.00;99.90;;;;;;4996632;28;20606;-89
2022/10/26 07:34:20;;;;;;;2.70;2.50;;;7.00;99.90;;;;;;4986928;28;20206;-90
2022/10/26 07:36:52;;;;;;;5.33;2.93;;;7.00;99.90;;;;;;4998130;28;20210;-87
2022/10/26 07:39:24;;;;;;;3.63;2.60;;;7.00;99.90;;;;;;4992363;28;20250;-87
2022/10/26 07:41:57;;;;;;;4.97;3.03;;;7.00;99.90;;;;;;4984499;28;20232;-91
2022/10/26 07:44:29;;;;;;;4.00;2.77;;;7.00;99.90;;;;;;4994719;28;20275;-89
2022/10/26 07:47:00;;;;;;;3.63;3.20;;;7.00;99.90;;;;;;4995412;28;20214;-88
2022/10/26 07:49:31;;;;;;;3.10;2.80;;;7.00;99.90;;;;;;4996068;28;20217;-89
2022/10/26 07:52:02;;;;;;;3.87;3.00;;;7.00;99.90;;;;;;4993320;28;20236;-88
2022/10/26 07:54:34;;;;;;;3.57;2.73;;;7.00;99.90;;;;;;4995482;28;20206;-88
2022/10/26 07:57:07;;;;;;;3.83;3.07;;;7.00;99.90;;;;;;4995015;28;20245;-87
2022/10/26 07:59:38;;;;;;;4.23;3.13;;;7.00;99.90;;;;;;4995540;28;20234;-88
2022/10/26 08:02:10;;;;;;;4.50;3.00;;;7.00;99.90;;;;;;4994747;28;20202;-88
2022/10/26 08:04:42;;;;;;;5.07;2.90;;;7.00;99.90;;;;;;4993108;28;20288;-89
2022/10/26 08:07:13;;;;;;;3.53;3.23;;;7.00;99.90;;;;;;4996321;28;20207;-88
2022/10/26 08:09:44;;;;;;;3.50;3.17;;;7.00;99.90;;;;;;4995828;28;20304;-88
2022/10/26 08:12:20;;;;;;;3.37;3.07;;;7.00;99.90;;;;;;4993226;28;20210;-89
2022/10/26 08:14:52;;;;;;;5.23;3.40;;;7.00;99.90;;;;;;4980952;28;20214;-88
2022/10/26 08:17:23;;;;;;;5.07;3.40;;;7.00;99.90;;;;;;4993831;28;20226;-88
2022/10/26 08:19:54;;;;;;;4.37;3.20;;;7.10;99.90;;;;;;4988541;28;20238;-88
2022/10/26 08:22:25;;;;;;;4.37;3.93;;;7.00;99.90;;;;;;4985974;28;20989;-89
2022/10/26 08:24:56;;;;;;;4.80;3.37;;;7.00;99.90;;;;;;4996211;28;20268;-87
2022/10/26 08:27:28;;;;;;;7.57;4.30;;;7.00;99.90;;;;;;4993095;28;20212;-88
2022/10/26 08:29:59;;;;;;;5.67;3.80;;;7.00;99.90;;;;;;4991066;28;20210;-88
2022/10/26 08:32:31;;;;;;;3.87;3.50;;;7.00;99.90;;;;;;5012170;28;20581;-88
2022/10/26 08:35:02;;;;;;;5.13;3.80;;;7.00;99.90;;;;;;4998325;28;20270;-89
2022/10/26 08:37:34;;;;;;;5.87;3.73;;;6.90;99.90;;;;;;4999551;28;20206;-88
2022/10/26 08:40:05;;;;;;;4.43;3.33;;;7.00;99.90;;;;;;5001065;28;20294;-88
2022/10/26 08:42:44;;;;;;;5.27;3.43;;;7.00;99.90;;;;;;4998130;28;20218;-89
2022/10/26 08:45:25;;;;;;;4.03;3.17;;;7.10;99.90;;;;;;4976436;28;20254;-88
2022/10/26 08:48:12;;;;;;;4.20;3.37;;;7.00;99.90;;;;;;4977423;28;20218;-89
2022/10/26 08:50:46;;;;;;;3.90;3.60;;;7.10;99.90;;;;;;4983426;28;20221;-89
2022/10/26 08:53:22;;;;;;;4.07;3.63;;;7.10;99.90;;;;;;4987928;28;20922;-88
2022/10/26 08:55:58;;;;;;;4.87;3.17;;;7.00;99.90;;;;;;4989409;28;20222;-88
2022/10/26 08:58:37;;;;;;;3.77;3.13;;;7.10;99.90;;;;;;4994787;28;20228;-89
2022/10/26 09:01:10;;;;;;;6.00;3.37;;;7.00;99.90;;;;;;4994710;28;20212;-89
2022/10/26 09:03:42;;;;;;;5.53;3.27;;;7.00;99.90;;;;;;4993867;28;20284;-88
2022/10/26 09:06:25;;;;;;;6.00;3.20;;;7.10;99.90;;;;;;4994363;28;20913;-89
2022/10/26 09:09:05;;;;;;;6.47;3.43;;;7.10;99.90;;;;;;4993927;28;20217;-87
2022/10/26 09:11:53;;;;;;;4.33;2.97;;;7.10;99.90;;;;;;4993655;28;20206;-87
2022/10/26 09:14:37;;;;;;;6.53;2.90;;;7.10;99.90;;;;;;4994213;28;20209;-89
2022/10/26 09:17:18;;;;;;;6.03;3.20;;;7.10;99.90;;;;;;4995037;28;20206;-87
2022/10/26 09:20:11;;;;;;;4.13;2.67;;;7.10;99.90;;;;;;4993643;28;20206;-88
2022/10/26 09:22:51;;;;;;;3.37;2.60;;;7.10;99.90;;;;;;4993540;28;20213;-89
2022/10/26 09:25:24;;;;;;;3.27;2.93;;;7.10;99.90;;;;;;4994352;28;20256;-89
2022/10/26 09:27:58;;;;;;;6.07;3.77;;;7.00;99.90;;;;;;4994295;28;20209;-89
2022/10/26 09:30:31;;;;;;;4.17;3.37;;;7.00;99.90;;;;;;4994257;28;20208;-90
2022/10/26 09:33:13;;;;;;;4.13;2.97;;;7.00;99.90;;;;;;4985289;28;20206;-89
2022/10/26 09:35:49;;;;;;;6.03;3.43;;;7.00;99.90;;;;;;4994485;28;20205;-88
2022/10/26 09:38:25;;;;;;;6.77;3.40;;;7.00;99.90;;;;;;4994401;28;20211;-89
2022/10/26 09:41:00;;;;;;;4.57;3.37;;;7.00;99.90;;;;;;4994256;28;20332;-88
2022/10/26 09:43:38;;;;;;;5.33;3.10;;;7.00;99.90;;;;;;4992615;28;20654;-89
2022/10/26 09:46:19;;;;;;;4.10;2.83;;;7.00;99.90;;;;;;4995229;28;20289;-88
2022/10/26 09:48:53;;;;;;;6.07;2.93;;;7.00;99.90;;;;;;4993892;28;20205;-88
2022/10/26 09:51:26;;;;;;;5.00;2.73;;;7.00;99.90;;;;;;4992308;28;20689;-89
2022/10/26 09:53:59;;;;;;;6.33;3.07;;;7.00;99.90;;;;;;4993277;28;20207;-89
2022/10/26 09:56:31;;;;;;;12.30;3.40;;;7.00;99.90;;;;;;4994462;28;20221;-88
2022/10/26 09:59:06;;;;;;;5.77;3.27;;;7.00;99.90;;;;;;4994037;28;20350;-89
2022/10/26 10:01:39;;;;;;;3.77;3.30;;;7.00;99.90;;;;;;5000178;28;20216;-89
2022/10/26 10:04:24;;;;;;;9.83;3.70;;;7.00;99.90;;;;;;4977653;28;20237;-90
2022/10/26 10:07:14;;;;;;;6.70;3.50;;;7.00;99.90;;;;;;4978454;28;20203;-89
2022/10/26 10:10:15;;;;;;;8.33;3.57;;;7.00;99.90;;;;;;4981307;28;20253;-88
2022/10/26 10:12:49;;;;;;;4.97;3.47;;;6.90;99.90;;;;;;4978678;28;20210;-88
2022/10/26 10:15:22;;;;;;;6.17;3.30;;;6.90;99.90;;;;;;4981746;28;20723;-89
2022/10/26 10:17:56;;;;;;;4.23;3.20;;;7.00;99.90;;;;;;4986838;28;20679;-90
2022/10/26 10:20:32;;;;;;;5.70;4.23;;;6.90;99.90;;;;;;4984408;28;20257;-89
2022/10/26 10:23:04;;;;;;;6.40;3.50;;;6.90;99.90;;;;;;4978380;28;20211;-89
2022/10/26 10:25:37;;;;;;;5.03;3.23;;;6.90;99.90;;;;;;4978399;28;20243;-89
2022/10/26 10:28:22;;;;;;;5.33;3.30;;;6.90;99.90;;;;;;4977850;28;20275;-87
2022/10/26 10:30:58;;;;;;;5.10;3.20;;;6.90;99.90;;;;;;4980202;28;20210;-89
2022/10/26 10:33:51;;;;;;;4.03;3.50;;;6.80;99.90;;;;;;4980859;28;20210;-87
2022/10/26 10:36:25;;;;;;;4.27;2.83;;;6.90;99.90;;;;;;4985856;28;20210;-89
2022/10/26 10:38:57;;;;;;;9.20;3.33;;;6.90;99.90;;;;;;4978487;28;20285;-87
2022/10/26 10:41:31;;;;;;;4.47;3.30;;;6.90;99.90;;;;;;4977867;28;20211;-89
2022/10/26 10:44:07;;;;;;;4.30;3.00;;;6.90;99.90;;;;;;4976206;28;20254;-89
2022/10/26 10:46:39;;;;;;;3.43;2.40;;;6.80;99.90;;;;;;4980870;28;20214;-88
2022/10/26 10:49:22;;;;;;;3.00;2.57;;;6.90;99.90;;;;;;4996068;28;20198;-89
2022/10/26 10:51:54;;;;;;;5.57;2.90;;;6.90;99.90;;;;;;4996995;28;20233;-89
2022/10/26 10:54:29;;;;;;;5.50;2.63;;;6.90;99.90;;;;;;4996347;28;20211;-89
2022/10/26 10:57:12;;;;;;;5.40;2.60;;;7.00;99.90;;;;;;4997236;28;20200;-89
2022/10/26 11:00:02;;;;;;;4.00;3.00;;;6.90;99.90;;;;;;4996886;28;20206;-89
2022/10/26 11:03:02;;;;;;;5.83;2.80;;;6.90;99.90;;;;;;4996606;28;20663;-88
2022/10/26 11:05:48;;;;;;;6.43;2.57;;;6.80;99.90;;;;;;4997446;28;20218;-88
2022/10/26 11:08:23;;;;;;;4.47;2.40;;;6.90;99.90;;;;;;5007137;28;20206;-87
2022/10/26 11:11:00;;;;;;;8.53;2.70;;;6.90;99.90;;;;;;4994019;28;20285;-89
2022/10/26 11:13:36;;;;;;;5.90;2.47;;;6.90;99.90;;;;;;5002713;28;20206;-89
2022/10/26 11:16:14;;;;;;;3.63;2.37;;;6.90;99.90;;;;;;4998995;28;20209;-89
2022/10/26 11:18:49;;;;;;;7.03;2.60;;;6.90;99.90;;;;;;4997238;28;20225;-89
2022/10/26 11:21:29;;;;;;;4.57;2.67;;;6.90;99.90;;;;;;4997777;28;20206;-89
2022/10/26 11:24:12;;;;;;;4.23;2.43;;;6.90;99.90;;;;;;4996445;28;20228;-88
2022/10/26 11:26:51;;;;;;;2.90;2.30;;;6.90;99.90;;;;;;5009336;28;20208;-88
2022/10/26 11:29:34;;;;;;;6.00;2.37;;;7.00;99.90;;;;;;4996359;28;20679;-89
2022/10/26 11:32:16;;;;;;;4.80;2.27;;;7.00;99.90;;;;;;4996200;28;20939;-88
2022/10/26 11:34:55;;;;;;;3.30;2.07;;;7.00;99.90;;;;;;4998072;28;20647;-87
2022/10/26 11:37:38;;;;;;;3.93;2.27;;;7.00;99.90;;;;;;4996215;28;20202;-88
2022/10/26 11:40:25;;;;;;;2.03;1.80;;;7.00;99.90;;;;;;4997644;28;20211;-88
2022/10/26 11:43:04;;;;;;;3.23;2.10;;;7.00;99.90;;;;;;4995008;28;20214;-88
2022/10/26 11:45:40;;;;;;;6.17;1.80;;;7.00;99.90;;;;;;4978067;28;20615;-88
2022/10/26 11:48:21;;;;;;;3.93;1.70;;;7.00;99.90;;;;;;4980582;28;20217;-87
2022/10/26 11:50:54;;;;;;;4.67;1.77;;;7.00;99.90;;;;;;4994301;28;20210;-88
2022/10/26 11:53:32;;;;;;;2.57;1.40;;;7.00;99.90;;;;;;4977702;28;20231;-89
2022/10/26 11:56:06;;;;;;;4.67;1.73;;;7.00;99.90;;;;;;4976946;28;20211;-89
2022/10/26 11:58:38;;;;;;;3.73;1.80;;;7.00;99.90;;;;;;4978872;28;20209;-89
2022/10/26 12:01:11;;;;;;;5.53;2.20;;;7.10;99.90;;;;;;4982710;28;20221;-88
2022/10/26 12:03:47;;;;;;;3.50;1.80;;;7.10;99.90;;;;;;4995725;28;20217;-88
2022/10/26 12:06:21;;;;;;;4.27;2.10;;;7.20;99.90;;;;;;4995827;28;20319;-89
2022/10/26 12:09:02;;;;;;;2.87;2.20;;;7.20;99.90;;;;;;4996193;28;20202;-90
2022/10/26 12:11:41;;;;;;;3.77;2.20;;;7.30;99.90;;;;;;4995638;28;20209;-89
2022/10/26 12:14:22;;;;;;;5.93;2.50;;;7.30;99.90;;;;;;4994075;28;20218;-89
2022/10/26 12:17:01;;;;;;;3.53;2.20;;;7.30;99.90;;;;;;4995447;28;20206;-89
2022/10/26 12:19:44;;;;;;;3.63;2.40;;;7.30;99.90;;;;;;4995573;28;20240;-90
2022/10/26 12:22:18;;;;;;;5.00;2.37;;;7.30;99.90;;;;;;4994251;28;20671;-89
2022/10/26 12:25:08;;;;;;;3.87;2.23;;;7.40;99.90;;;;;;4995327;28;20217;-89
2022/10/26 12:27:59;;;;;;;4.00;1.80;;;7.40;99.90;;;;;;4995262;28;20225;-89
2022/10/26 12:30:32;;;;;;;3.50;1.97;;;7.40;99.90;;;;;;4995180;28;20222;-89
2022/10/26 12:33:11;;;;;;;4.13;1.87;;;7.40;99.90;;;;;;4982367;28;20305;-89
2022/10/26 12:35:45;;;;;;;2.83;1.87;;;7.40;99.90;;;;;;4981777;28;20213;-89
2022/10/26 12:39:06;;;;;;;6.17;2.00;;;7.40;99.90;;;;;;4995219;28;20209;-89
2022/10/26 12:41:41;;;;;;;4.90;2.30;;;7.50;99.90;;;;;;4994911;28;20232;-89
2022/10/26 12:44:33;;;;;;;7.70;2.33;;;7.40;99.90;;;;;;4993858;28;20220;-89
2022/10/26 12:47:06;;;;;;;2.10;1.90;;;7.40;99.90;;;;;;4995334;28;20229;-88
2022/10/26 12:50:01;;;;;;;5.40;2.30;;;7.50;99.90;;;;;;4994688;28;20213;-89
2022/10/26 12:52:43;;;;;;;5.93;2.40;;;7.50;99.90;;;;;;4984513;28;20207;-88
2022/10/26 12:56:01;;;;;;;3.93;2.13;;;7.50;99.90;;;;;;4991645;28;20206;-88
2022/10/26 12:59:08;;;;;;;5.03;2.60;;;7.50;99.90;;;;;;4994724;28;20229;-88
2022/10/26 13:01:57;;;;;;;4.83;2.43;;;7.50;99.90;;;;;;4991134;28;20650;-88
2022/10/26 13:04:52;;;;;;;4.03;2.17;;;7.60;99.90;;;;;;4995016;28;20301;-88
2022/10/26 13:07:26;;;;;;;4.73;2.40;;;7.60;99.90;;;;;;4975074;28;20269;-88
2022/10/26 13:10:02;;;;;;;5.40;2.30;;;7.60;99.90;;;;;;4997341;28;20202;-89
2022/10/26 13:12:48;;;;;;;3.50;2.10;;;7.60;99.90;;;;;;4996925;28;20594;-89
2022/10/26 13:15:28;;;;;;;5.40;2.10;;;7.50;99.90;;;;;;4996494;28;20733;-88
2022/10/26 13:18:11;;;;;;;7.80;2.00;;;7.50;99.90;;;;;;4995481;28;20210;-89
2022/10/26 13:20:55;;;;;;;2.57;2.00;;;7.40;99.90;;;;;;4997392;28;20206;-90
2022/10/26 13:23:28;;;;;;;3.53;1.77;;;7.50;99.90;;;;;;4997075;28;20210;-88
2022/10/26 13:26:08;;;;;;;3.40;2.00;;;7.50;99.90;;;;;;4989715;28;20721;-89
2022/10/26 13:28:51;;;;;;;5.60;2.00;;;7.50;99.90;;;;;;4975198;28;20214;-87
2022/10/26 13:31:59;;;;;;;2.87;2.00;;;7.50;99.90;;;;;;5015253;28;20629;-90
2022/10/26 13:34:34;;;;;;;2.77;1.70;;;7.50;99.90;;;;;;5015380;28;20205;-89
2022/10/26 13:37:19;;;;;;;3.73;1.43;;;7.50;99.90;;;;;;5018271;28;20204;-88
2022/10/26 13:39:54;;;;;;;3.40;1.63;;;7.50;99.90;;;;;;5016151;28;20654;-87
2022/10/26 13:42:28;;;;;;;4.20;1.33;;;7.50;99.90;;;;;;4996359;28;20293;-89
2022/10/26 13:45:06;;;;;;;2.07;1.13;;;7.50;99.90;;;;;;4998924;28;20232;-89
2022/10/26 13:47:44;;;;;;;1.60;1.10;;;7.30;99.90;;;;;;5001190;28;20689;-88